createdAt,value
2018-07-10T00:02:19.372Z,27.50
2018-07-10T00:07:15.329Z,26.80
2018-07-10T00:12:00.533Z,27.40
2018-07-10T00:14:30.494Z,28.27
2018-07-10T00:17:01.084Z,26.50
2018-07-10T00:19:31.870Z,25.73
2018-07-10T00:22:02.518Z,25.07
2018-07-10T00:24:33.411Z,25.27
2018-07-10T00:27:04.075Z,26.07
2018-07-10T00:29:34.666Z,25.90
2018-07-10T00:32:05.350Z,25.73
2018-07-10T00:34:35.830Z,27.17
2018-07-10T00:37:06.852Z,26.50
2018-07-10T00:39:37.430Z,26.67
2018-07-10T00:42:08.072Z,25.73
2018-07-10T00:44:38.560Z,25.77
2018-07-10T00:47:09.039Z,25.47
2018-07-10T00:49:39.701Z,24.00
2018-07-10T00:52:10.546Z,24.33
2018-07-10T00:54:41.139Z,24.57
2018-07-10T00:57:11.788Z,22.77
2018-07-10T00:59:42.631Z,24.30
2018-07-10T01:02:13.266Z,23.57
2018-07-10T01:04:43.909Z,22.83
2018-07-10T01:07:14.837Z,22.20
2018-07-10T01:09:45.359Z,23.17
2018-07-10T01:12:16.020Z,22.57
2018-07-10T01:14:46.700Z,22.40
2018-07-10T01:17:23.425Z,22.57
2018-07-10T01:19:54.476Z,23.30
2018-07-10T01:22:25.083Z,23.90
2018-07-10T01:24:55.143Z,24.23
2018-07-10T01:27:25.778Z,24.83
2018-07-10T01:29:56.460Z,25.47
2018-07-10T01:32:27.615Z,25.47
2018-07-10T01:34:58.277Z,25.07
2018-07-10T01:37:29.245Z,24.77
2018-07-10T01:40:00.084Z,24.40
2018-07-10T01:42:30.968Z,25.30
2018-07-10T01:45:01.884Z,25.37
2018-07-10T01:47:31.867Z,27.37
2018-07-10T01:50:02.234Z,29.93
2018-07-10T01:52:33.096Z,28.30
2018-07-10T01:55:03.903Z,28.77
2018-07-10T01:57:34.498Z,29.97
2018-07-10T02:00:05.377Z,27.27
2018-07-10T02:02:36.187Z,27.23
2018-07-10T02:05:06.891Z,27.60
2018-07-10T02:07:37.622Z,28.03
2018-07-10T02:10:08.404Z,28.83
2018-07-10T02:12:39.067Z,29.47
2018-07-10T02:15:09.816Z,28.73
2018-07-10T02:17:40.476Z,25.60
2018-07-10T02:20:11.204Z,25.07
2018-07-10T02:22:41.581Z,25.67
2018-07-10T02:25:12.419Z,27.55
2018-07-10T02:27:43.250Z,24.60
2018-07-10T02:30:16.047Z,24.17
2018-07-10T02:32:46.914Z,23.87
2018-07-10T02:35:17.747Z,25.00
2018-07-10T02:37:50.447Z,25.47
2018-07-10T02:40:21.256Z,23.67
2018-07-10T02:42:52.215Z,25.47
2018-07-10T02:45:23.203Z,23.97
2018-07-10T02:47:54.008Z,24.10
2018-07-10T02:50:25.138Z,26.20
2018-07-10T02:52:56.113Z,28.70
2018-07-10T02:55:26.851Z,31.70
2018-07-10T02:57:57.759Z,30.87
2018-07-10T03:00:28.578Z,30.13
2018-07-10T03:02:59.603Z,28.27
2018-07-10T03:05:30.309Z,28.17
2018-07-10T03:08:00.525Z,28.10
2018-07-10T03:10:31.141Z,27.90
2018-07-10T03:13:02.264Z,27.83
2018-07-10T03:15:33.219Z,27.60
2018-07-10T03:18:03.220Z,27.27
2018-07-10T03:20:34.121Z,28.50
2018-07-10T03:23:05.268Z,29.97
2018-07-10T03:25:35.948Z,30.23
2018-07-10T03:28:06.927Z,33.37
2018-07-10T03:30:37.514Z,34.57
2018-07-10T03:33:08.465Z,36.63
2018-07-10T03:35:38.578Z,37.00
2018-07-10T03:38:09.332Z,36.73
2018-07-10T03:40:40.184Z,37.53
2018-07-10T03:43:11.058Z,39.70
2018-07-10T03:45:41.934Z,36.10
2018-07-10T03:48:12.654Z,40.77
2018-07-10T03:50:43.522Z,37.43
2018-07-10T03:53:14.285Z,35.17
2018-07-10T03:55:45.174Z,33.50
2018-07-10T03:58:16.095Z,35.00
2018-07-10T04:00:46.852Z,34.87
2018-07-10T04:03:17.624Z,35.80
2018-07-10T04:05:48.642Z,38.87
2018-07-10T04:08:19.761Z,40.70
2018-07-10T04:10:50.526Z,39.30
2018-07-10T04:13:21.796Z,38.33
2018-07-10T04:16:00.270Z,36.27
2018-07-10T04:18:33.312Z,37.60
2018-07-10T04:21:18.325Z,38.53
2018-07-10T04:23:56.330Z,39.17
2018-07-10T04:26:27.054Z,38.07
2018-07-10T04:29:21.936Z,41.37
2018-07-10T04:31:58.093Z,41.03
2018-07-10T04:34:30.683Z,43.00
2018-07-10T04:37:12.886Z,42.30
2018-07-10T04:39:44.822Z,40.40
2018-07-10T04:42:24.667Z,40.73
2018-07-10T04:45:08.203Z,40.97
2018-07-10T04:47:50.110Z,40.67
2018-07-10T04:50:42.812Z,39.27
2018-07-10T04:53:16.665Z,36.00
2018-07-10T04:55:47.422Z,36.97
2018-07-10T04:58:20.666Z,36.07
2018-07-10T05:00:56.390Z,36.43
2018-07-10T05:03:27.817Z,35.17
2018-07-10T05:06:00.563Z,35.27
2018-07-10T05:08:31.561Z,36.97
2018-07-10T05:11:02.954Z,38.40
2018-07-10T05:13:33.727Z,36.37
2018-07-10T05:16:07.330Z,37.27
2018-07-10T05:18:38.034Z,36.87
2018-07-10T05:21:14.034Z,36.20
2018-07-10T05:23:45.147Z,37.53
2018-07-10T05:26:17.291Z,38.50
2018-07-10T05:28:51.475Z,33.90
2018-07-10T05:31:23.190Z,37.53
2018-07-10T05:33:53.980Z,40.57
2018-07-10T05:36:25.152Z,48.67
2018-07-10T05:39:11.791Z,45.50
2018-07-10T05:41:48.169Z,41.87
2018-07-10T05:44:22.082Z,39.83
2018-07-10T05:46:53.296Z,33.57
2018-07-10T05:49:24.175Z,36.97
2018-07-10T05:51:55.055Z,33.07
2018-07-10T05:54:27.913Z,35.43
2018-07-10T05:56:57.910Z,32.97
2018-07-10T05:59:28.422Z,40.20
2018-07-10T06:01:58.996Z,34.67
2018-07-10T06:04:29.843Z,35.60
2018-07-10T06:07:01.511Z,41.63
2018-07-10T06:09:32.063Z,39.27
2018-07-10T06:12:02.865Z,39.77
2018-07-10T06:14:33.745Z,48.40
2018-07-10T06:17:04.579Z,45.40
2018-07-10T06:19:35.443Z,39.27
2018-07-10T06:22:06.170Z,37.77
2018-07-10T06:24:37.781Z,38.33
2018-07-10T06:27:09.048Z,37.37
2018-07-10T06:30:05.902Z,37.27
2018-07-10T06:33:04.675Z,35.60
2018-07-10T06:35:45.155Z,34.37
2018-07-10T06:38:18.919Z,35.13
2018-07-10T06:40:51.748Z,33.33
2018-07-10T06:44:26.976Z,34.80
2018-07-10T06:47:00.720Z,36.83
2018-07-10T06:49:34.022Z,34.47
2018-07-10T06:52:15.566Z,30.87
2018-07-10T06:55:21.657Z,28.47
2018-07-10T06:57:57.791Z,27.50
2018-07-10T07:00:28.938Z,27.80
2018-07-10T07:03:02.450Z,25.77
2018-07-10T07:05:33.833Z,26.20
2018-07-10T07:08:04.591Z,25.60
2018-07-10T07:10:35.336Z,23.27
2018-07-10T07:13:05.955Z,22.17
2018-07-10T07:15:36.864Z,24.50
2018-07-10T07:18:10.119Z,23.60
2018-07-10T07:20:41.214Z,22.90
2018-07-10T07:23:13.077Z,24.73
2018-07-10T07:25:43.805Z,22.50
2018-07-10T07:28:14.506Z,21.23
2018-07-10T07:30:45.145Z,21.70
2018-07-10T07:33:15.888Z,23.10
2018-07-10T07:35:46.355Z,22.50
2018-07-10T07:38:17.823Z,21.63
2018-07-10T07:40:48.610Z,25.20
2018-07-10T07:43:19.498Z,24.77
2018-07-10T07:45:51.219Z,25.73
2018-07-10T07:48:25.159Z,24.40
2018-07-10T07:50:56.196Z,22.00
2018-07-10T07:53:27.021Z,22.47
2018-07-10T07:55:57.963Z,17.60
2018-07-10T07:58:28.966Z,18.03
2018-07-10T08:00:59.913Z,17.57
2018-07-10T08:03:30.654Z,17.17
2018-07-10T08:06:01.959Z,20.90
2018-07-10T08:08:32.776Z,19.93
2018-07-10T08:11:03.883Z,18.53
2018-07-10T08:13:34.089Z,17.33
2018-07-10T08:16:04.906Z,17.87
2018-07-10T08:18:35.888Z,19.50
2018-07-10T08:21:06.786Z,18.77
2018-07-10T08:23:37.672Z,16.90
2018-07-10T08:26:08.866Z,14.07
2018-07-10T08:28:40.013Z,13.73
2018-07-10T08:31:12.391Z,14.03
2018-07-10T08:33:42.940Z,13.10
2018-07-10T08:36:14.387Z,16.23
2018-07-10T08:38:48.601Z,16.40
2018-07-10T08:41:26.246Z,15.53
2018-07-10T08:44:00.273Z,16.30
2018-07-10T08:46:34.248Z,16.00
2018-07-10T08:49:07.396Z,18.23
2018-07-10T08:51:41.555Z,18.80
2018-07-10T08:54:14.201Z,18.30
2018-07-10T08:56:51.579Z,17.57
2018-07-10T08:59:24.702Z,18.97
2018-07-10T09:01:56.130Z,21.27
2018-07-10T09:04:31.490Z,24.90
2018-07-10T09:07:03.096Z,23.37
2018-07-10T09:09:34.548Z,22.87
2018-07-10T09:12:07.848Z,22.80
2018-07-10T09:14:45.220Z,21.17
2018-07-10T09:17:16.173Z,20.43
2018-07-10T09:19:48.453Z,21.50
2018-07-10T09:22:27.566Z,20.27
2018-07-10T09:24:59.829Z,18.13
2018-07-10T09:27:33.762Z,17.60
2018-07-10T09:30:04.704Z,18.10
2018-07-10T09:32:40.755Z,17.97
2018-07-10T09:35:11.530Z,17.50
2018-07-10T09:37:48.863Z,16.77
2018-07-10T09:40:23.493Z,16.93
2018-07-10T09:43:00.739Z,16.57
2018-07-10T09:45:41.188Z,17.40
2018-07-10T09:48:12.161Z,15.53
2018-07-10T09:50:46.050Z,15.73
2018-07-10T09:53:20.386Z,18.30
2018-07-10T09:55:52.261Z,17.33
2018-07-10T09:58:23.119Z,16.27
2018-07-10T10:01:02.086Z,15.87
2018-07-10T10:03:34.254Z,16.00
2018-07-10T10:06:14.160Z,15.43
2018-07-10T10:08:45.124Z,15.80
2018-07-10T10:11:17.008Z,15.03
2018-07-10T10:13:53.972Z,14.40
2018-07-10T10:16:25.754Z,13.67
2018-07-10T10:19:00.624Z,14.33
2018-07-10T10:21:37.591Z,13.27
2018-07-10T10:24:18.052Z,12.37
2018-07-10T10:26:51.006Z,12.37
2018-07-10T10:29:29.376Z,12.00
2018-07-10T10:32:00.716Z,10.93
2018-07-10T10:34:31.300Z,12.27
2018-07-10T10:37:17.489Z,12.47
2018-07-10T10:39:52.929Z,10.67
2018-07-10T10:42:26.566Z,11.80
2018-07-10T10:45:00.769Z,11.70
2018-07-10T10:47:38.908Z,10.53
2018-07-10T10:50:15.027Z,10.10
2018-07-10T10:52:49.438Z,11.07
2018-07-10T10:55:20.419Z,9.67
2018-07-10T10:57:51.466Z,10.93
2018-07-10T11:00:22.398Z,10.80
2018-07-10T11:02:52.865Z,10.50
2018-07-10T11:05:24.383Z,10.60
2018-07-10T11:07:55.233Z,9.83
2018-07-10T11:10:26.054Z,9.77
2018-07-10T11:12:57.621Z,9.53
2018-07-10T11:15:28.680Z,9.43
2018-07-10T11:18:06.947Z,9.50
2018-07-10T11:20:52.571Z,9.27
2018-07-10T11:23:29.640Z,10.07
2018-07-10T11:26:06.880Z,10.33
2018-07-10T11:28:37.814Z,10.10
2018-07-10T11:31:08.472Z,9.90
2018-07-10T11:33:38.554Z,9.90
2018-07-10T11:36:09.358Z,10.13
2018-07-10T11:38:40.251Z,9.87
2018-07-10T11:41:11.399Z,9.93
2018-07-10T11:43:42.253Z,9.70
2018-07-10T11:46:13.129Z,9.50
2018-07-10T11:48:43.782Z,9.50
2018-07-10T11:51:14.502Z,11.73
2018-07-10T11:53:45.477Z,10.50
2018-07-10T11:56:16.044Z,9.60
2018-07-10T11:58:47.175Z,9.20
2018-07-10T12:01:18.503Z,9.20
2018-07-10T12:03:48.763Z,9.37
2018-07-10T12:06:19.795Z,9.37
2018-07-10T12:08:56.314Z,8.90
2018-07-10T12:11:31.917Z,9.43
2018-07-10T12:14:02.841Z,9.83
2018-07-10T12:16:33.566Z,10.57
2018-07-10T12:19:04.269Z,10.57
2018-07-10T12:21:35.882Z,9.80
2018-07-10T12:24:07.429Z,9.90
2018-07-10T12:26:38.817Z,10.97
2018-07-10T12:29:09.618Z,9.83
2018-07-10T12:31:40.830Z,10.90
2018-07-10T12:34:11.832Z,10.10
2018-07-10T12:36:42.674Z,10.40
2018-07-10T12:39:12.724Z,9.57
2018-07-10T12:41:43.679Z,9.20
2018-07-10T12:44:14.439Z,9.77
2018-07-10T12:46:44.449Z,9.77
2018-07-10T12:49:15.151Z,9.57
2018-07-10T12:51:45.946Z,9.50
2018-07-10T12:54:17.280Z,9.70
2018-07-10T12:56:48.187Z,9.80
2018-07-10T12:59:19.139Z,8.60
2018-07-10T13:01:50.018Z,8.80
2018-07-10T13:04:21.105Z,9.03
2018-07-10T13:06:51.820Z,8.27
2018-07-10T13:09:22.589Z,8.83
2018-07-10T13:11:53.398Z,8.93
2018-07-10T13:14:24.349Z,9.33
2018-07-10T13:16:55.105Z,8.67
2018-07-10T13:19:26.022Z,8.90
2018-07-10T13:21:56.650Z,9.07
2018-07-10T13:24:28.011Z,9.50
2018-07-10T13:26:58.876Z,8.97
2018-07-10T13:29:28.850Z,9.50
2018-07-10T13:31:58.844Z,9.30
2018-07-10T13:34:29.543Z,8.30
2018-07-10T13:36:59.614Z,9.43
2018-07-10T13:39:30.383Z,9.40
2018-07-10T13:42:01.312Z,10.60
2018-07-10T13:44:32.170Z,8.93
2018-07-10T13:47:02.394Z,9.13
2018-07-10T13:49:32.998Z,8.83
2018-07-10T13:52:03.772Z,8.83
2018-07-10T13:54:34.444Z,9.33
2018-07-10T13:57:05.479Z,8.93
2018-07-10T13:59:36.218Z,9.23
2018-07-10T14:02:07.305Z,8.43
2018-07-10T14:04:38.061Z,7.67
2018-07-10T14:07:09.033Z,8.07
2018-07-10T14:09:39.883Z,9.03
2018-07-10T14:12:10.658Z,7.83
2018-07-10T14:14:41.592Z,9.27
2018-07-10T14:17:11.622Z,8.23
2018-07-10T14:19:42.935Z,7.90
2018-07-10T14:22:12.936Z,7.83
2018-07-10T14:24:43.705Z,7.73
2018-07-10T14:27:14.645Z,6.90
2018-07-10T14:29:45.395Z,7.70
2018-07-10T14:32:16.245Z,7.77
2018-07-10T14:34:46.964Z,7.50
2018-07-10T14:37:18.386Z,8.07
2018-07-10T14:39:49.719Z,7.30
2018-07-10T14:42:21.056Z,7.20
2018-07-10T14:44:51.943Z,7.77
2018-07-10T14:47:22.138Z,7.27
2018-07-10T14:49:53.417Z,8.57
2018-07-10T14:52:24.266Z,8.37
2018-07-10T14:54:55.098Z,9.73
2018-07-10T14:57:26.071Z,8.30
2018-07-10T14:59:56.882Z,9.10
2018-07-10T15:02:27.792Z,9.50
2018-07-10T15:04:58.426Z,8.83
2018-07-10T15:07:29.321Z,9.43
2018-07-10T15:10:00.119Z,10.00
2018-07-10T15:12:30.775Z,11.67
2018-07-10T15:15:01.371Z,9.20
2018-07-10T15:17:37.113Z,9.83
2018-07-10T15:20:07.841Z,9.00
2018-07-10T15:22:39.376Z,9.77
2018-07-10T15:25:10.048Z,9.97
2018-07-10T15:27:45.554Z,9.83
2018-07-10T15:30:17.372Z,9.47
2018-07-10T15:32:48.590Z,9.50
2018-07-10T15:35:19.342Z,9.23
2018-07-10T15:37:50.183Z,9.63
2018-07-10T15:40:21.092Z,9.03
2018-07-10T15:42:52.543Z,9.17
2018-07-10T15:45:23.171Z,9.40
2018-07-10T15:47:53.935Z,9.27
2018-07-10T15:50:23.898Z,8.87
2018-07-10T15:52:54.332Z,9.27
2018-07-10T15:55:25.373Z,8.27
2018-07-10T15:57:56.578Z,8.40
2018-07-10T16:00:27.444Z,8.63
2018-07-10T16:02:58.904Z,10.37
2018-07-10T16:05:29.994Z,10.93
2018-07-10T16:08:26.338Z,8.57
2018-07-10T16:11:01.746Z,8.63
2018-07-10T16:13:50.904Z,8.23
2018-07-10T16:16:22.423Z,9.17
2018-07-10T16:21:03.209Z,8.73
2018-07-10T16:23:34.080Z,10.27
2018-07-10T16:26:12.184Z,8.87
2018-07-10T16:28:44.304Z,8.53
2018-07-10T16:31:20.072Z,8.90
2018-07-10T16:33:51.237Z,9.10
2018-07-10T16:36:22.239Z,9.03
2018-07-10T16:38:53.152Z,9.03
2018-07-10T16:41:29.297Z,9.07
2018-07-10T16:44:05.093Z,9.87
2018-07-10T16:46:36.153Z,9.53
2018-07-10T16:49:18.790Z,9.30
2018-07-10T16:51:55.215Z,9.83
2018-07-10T16:54:26.073Z,10.07
2018-07-10T16:56:56.610Z,12.80
2018-07-10T16:59:28.479Z,9.77
2018-07-10T17:01:59.233Z,10.10
2018-07-10T17:04:29.506Z,9.03
2018-07-10T17:07:00.036Z,9.30
2018-07-10T17:09:30.841Z,9.70
2018-07-10T17:12:01.869Z,10.27
2018-07-10T17:14:32.896Z,10.13
2018-07-10T17:17:04.020Z,8.77
2018-07-10T17:19:34.881Z,8.57
2018-07-10T17:22:05.787Z,9.70
2018-07-10T17:24:36.786Z,8.53
2018-07-10T17:27:11.529Z,9.67
2018-07-10T17:29:42.759Z,10.97
2018-07-10T17:32:14.014Z,9.97
2018-07-10T17:34:44.864Z,13.07
2018-07-10T17:37:15.592Z,12.17
2018-07-10T17:39:46.523Z,14.90
2018-07-10T17:42:17.859Z,17.80
2018-07-10T17:44:49.039Z,19.00
2018-07-10T17:47:20.382Z,17.50
2018-07-10T17:49:51.321Z,15.63
2018-07-10T17:52:22.268Z,13.03
2018-07-10T17:54:53.101Z,12.13
2018-07-10T17:57:23.918Z,14.83
2018-07-10T17:59:58.686Z,13.90
2018-07-10T18:02:29.595Z,14.37
2018-07-10T18:05:00.685Z,11.27
2018-07-10T18:07:31.387Z,11.73
2018-07-10T18:10:02.184Z,12.10
2018-07-10T18:12:33.074Z,12.83
2018-07-10T18:15:03.879Z,12.33
2018-07-10T18:17:34.763Z,12.17
2018-07-10T18:20:05.426Z,13.37
2018-07-10T18:22:36.184Z,15.83
2018-07-10T18:25:07.211Z,16.70
2018-07-10T18:27:38.419Z,17.10
2018-07-10T18:30:09.175Z,14.23
2018-07-10T18:32:40.143Z,12.73
2018-07-10T18:35:11.330Z,12.23
2018-07-10T18:37:43.705Z,12.23
2018-07-10T18:40:15.080Z,14.10
2018-07-10T18:42:47.020Z,11.97
2018-07-10T18:45:18.749Z,13.53
2018-07-10T18:47:52.221Z,12.70
2018-07-10T18:50:25.100Z,12.93
2018-07-10T18:52:58.056Z,14.03
2018-07-10T18:55:30.110Z,13.80
2018-07-10T18:58:14.466Z,13.60
2018-07-10T19:00:50.031Z,12.83
2018-07-10T19:03:23.997Z,13.77
2018-07-10T19:05:59.008Z,13.50
2018-07-10T19:08:31.852Z,13.57
2018-07-10T19:11:05.143Z,13.37
2018-07-10T19:13:38.583Z,13.77
2018-07-10T19:16:11.256Z,13.20
2018-07-10T19:18:43.913Z,14.70
2018-07-10T19:21:28.360Z,15.77
2018-07-10T19:24:06.277Z,15.43
2018-07-10T19:26:40.546Z,13.93
2018-07-10T19:29:23.665Z,14.63
2018-07-10T19:31:57.348Z,15.30
2018-07-10T19:34:30.320Z,14.83
2018-07-10T19:37:03.129Z,13.63
2018-07-10T19:39:36.791Z,15.67
2018-07-10T19:42:08.258Z,15.67
2018-07-10T19:44:41.631Z,16.67
2018-07-10T19:47:14.697Z,17.53
2018-07-10T19:49:49.251Z,18.67
2018-07-10T19:52:22.631Z,18.83
2018-07-10T19:54:56.477Z,19.77
2018-07-10T19:57:44.849Z,19.90
2018-07-10T20:00:18.005Z,19.77
2018-07-10T20:02:51.152Z,21.63
2018-07-10T20:05:24.406Z,24.53
2018-07-10T20:08:09.100Z,27.87
2018-07-10T20:11:13.196Z,28.30
2018-07-10T20:13:51.286Z,30.63
2018-07-10T20:16:39.296Z,31.17
2018-07-10T20:19:22.164Z,25.47
2018-07-10T20:22:37.180Z,24.97
2018-07-10T20:27:16.517Z,25.00
2018-07-10T20:30:04.964Z,25.97
2018-07-10T20:32:50.525Z,24.90
2018-07-10T20:35:38.476Z,25.73
2018-07-10T20:38:11.597Z,25.07
2018-07-10T20:40:45.829Z,24.07
2018-07-10T20:43:18.426Z,25.00
2018-07-10T20:45:53.073Z,24.83
2018-07-10T20:48:39.254Z,23.23
2018-07-10T20:51:12.897Z,24.30
2018-07-10T20:53:49.906Z,22.43
2018-07-10T20:56:45.028Z,23.97
2018-07-10T20:59:25.487Z,25.10
2018-07-10T21:02:01.925Z,26.30
2018-07-10T21:04:51.361Z,27.63
2018-07-10T21:07:33.048Z,27.30
2018-07-10T21:10:16.770Z,27.20
2018-07-10T21:12:57.655Z,28.13
2018-07-10T21:15:44.838Z,27.23
2018-07-10T21:18:30.836Z,27.67
2018-07-10T21:21:11.507Z,27.23
2018-07-10T21:23:58.255Z,26.87
2018-07-10T21:26:40.676Z,25.67
2018-07-10T21:30:19.263Z,27.53
2018-07-10T21:33:06.442Z,32.97
2018-07-10T21:35:49.063Z,33.77
2018-07-10T21:38:35.978Z,34.03
2018-07-10T21:41:40.608Z,34.77
2018-07-10T21:46:28.174Z,34.50
2018-07-10T21:50:03.328Z,38.70
2018-07-10T21:52:35.120Z,43.57
2018-07-10T21:55:06.530Z,45.67
2018-07-10T21:57:42.033Z,45.57
2018-07-10T22:00:12.656Z,46.33
2018-07-10T22:02:43.468Z,46.50
2018-07-10T22:05:14.184Z,51.10
2018-07-10T22:07:45.133Z,54.03
2018-07-10T22:10:15.912Z,57.17
2018-07-10T22:12:49.778Z,56.13
2018-07-10T22:15:20.683Z,57.00
2018-07-10T22:17:51.443Z,55.97
2018-07-10T22:20:22.375Z,57.23
2018-07-10T22:22:53.073Z,53.87
2018-07-10T22:25:23.829Z,51.50
2018-07-10T22:27:55.090Z,48.63
2018-07-10T22:30:30.645Z,46.10
2018-07-10T22:33:04.551Z,43.67
2018-07-10T22:35:35.523Z,40.97
2018-07-10T22:38:06.575Z,36.70
2018-07-10T22:40:37.366Z,36.70
2018-07-10T22:43:08.010Z,37.27
2018-07-10T22:45:38.762Z,33.43
2018-07-10T22:48:09.622Z,34.10
2018-07-10T22:50:40.538Z,35.57
2018-07-10T22:53:11.434Z,34.37
2018-07-10T22:55:42.373Z,34.00
2018-07-10T22:58:13.164Z,34.43
2018-07-10T23:00:43.831Z,33.73
2018-07-10T23:03:23.956Z,33.30
2018-07-10T23:05:55.259Z,35.53
2018-07-10T23:08:34.064Z,41.53
2018-07-10T23:11:07.377Z,40.87
2018-07-10T23:13:41.420Z,37.70
2018-07-10T23:16:11.097Z,32.10
2018-07-10T23:18:42.711Z,33.13
2018-07-10T23:21:15.698Z,32.50
2018-07-10T23:23:46.206Z,31.37
2018-07-10T23:26:19.165Z,32.23
2018-07-10T23:28:54.487Z,33.73
2018-07-10T23:31:30.084Z,31.40
2018-07-10T23:34:09.538Z,32.00
2018-07-10T23:36:40.336Z,32.13
2018-07-10T23:39:11.831Z,32.57
2018-07-10T23:42:04.789Z,33.10
2018-07-10T23:44:43.660Z,33.93
2018-07-10T23:47:21.364Z,35.17
2018-07-10T23:49:55.041Z,34.57
2018-07-10T23:53:06.189Z,33.37
2018-07-10T23:55:36.520Z,34.57
2018-07-10T23:58:07.592Z,36.17
